Time;durP1;ratioP1;P1;durP2;ratioP2;P2;SDS_P1;SDS_P2;PMS_P1;PMS_P2;Temp;Humidity;BMP_temperature;BMP_pressure;BME280_temperature;BME280_humidity;BME280_pressure;Samples;Min_cycle;Max_cycle;Signal;HPM_P1;HPM_P2
2021/10/09 00:01:14;;;;;;;;;;;;;;;;;;5033498;28;19954;-71
2021/10/09 00:03:39;;;;;;;;;;;;;;;;;;5041264;28;19913;-70
2021/10/09 00:06:05;;;;;;;;;;;;;;;;;;5035994;28;19913;-70
2021/10/09 00:08:31;;;;;;;;;;;;;;;;;;5041936;28;19906;-68
2021/10/09 00:10:56;;;;;;;;;;;;;;;;;;5040498;28;20109;-69
2021/10/09 00:13:22;;;;;;;;;;;;;;;;;;5001617;28;19968;-70
2021/10/09 00:15:47;;;;;;;;;;;;;;;;;;5042238;28;19939;-70
2021/10/09 00:18:12;;;;;;;;;;;;;;;;;;5040924;28;19996;-69
2021/10/09 00:20:37;;;;;;;;;;;;;;;;;;5045434;28;20022;-70
2021/10/09 00:23:02;;;;;;;;;;;;;;;;;;5039019;28;19913;-70
2021/10/09 00:25:28;;;;;;;;;;;;;;;;;;5038178;28;20248;-70
2021/10/09 00:27:53;;;;;;;;;;;;;;;;;;5044093;28;19906;-70
2021/10/09 00:30:18;;;;;;;;;;;;;;;;;;5038588;28;19948;-69
2021/10/09 00:32:44;;;;;;;;;;;;;;;;;;5034275;28;19980;-69
2021/10/09 00:35:09;;;;;;;;;;;;;;;;;;5025307;28;19920;-69
2021/10/09 00:37:34;;;;;;;;;;;;;;;;;;5029371;28;19905;-70
2021/10/09 00:39:59;;;;;;;;;;;;;;;;;;5035665;28;19905;-70
2021/10/09 00:42:24;;;;;;;;;;;;;;;;;;5028823;28;19948;-71
2021/10/09 00:44:50;;;;;;;;;;;;;;;;;;5034686;28;20239;-70
2021/10/09 00:47:15;;;;;;;;;;;;;;;;;;5009402;28;19906;-70
2021/10/09 00:49:40;;;;;;;;;;;;;;;;;;5040417;28;19906;-70
2021/10/09 00:52:08;;;;;;;;;;;;;;;;;;5045072;28;19936;-70
2021/10/09 00:54:33;;;;;;;;;;;;;;;;;;5044304;28;19905;-70
2021/10/09 00:56:59;;;;;;;;;;;;;;;;;;5032242;28;19916;-69
2021/10/09 00:59:24;;;;;;;;;;;;;;;;;;5027830;28;19906;-71
2021/10/09 01:01:49;;;;;;;;;;;;;;;;;;5028611;28;19913;-70
2021/10/09 01:04:14;;;;;;;;;;;;;;;;;;5032918;28;19906;-70
2021/10/09 01:06:40;;;;;;;;;;;;;;;;;;5005638;28;19917;-70
2021/10/09 01:09:05;;;;;;;;;;;;;;;;;;5033659;28;19960;-70
2021/10/09 01:11:30;;;;;;;;;;;;;;;;;;5039050;28;19924;-69
2021/10/09 01:13:56;;;;;;;;;;;;;;;;;;5029113;28;19964;-69
2021/10/09 01:16:21;;;;;;;;;;;;;;;;;;5034522;28;19916;-70
2021/10/09 01:18:47;;;;;;;;;;;;;;;;;;5029238;28;19939;-70
2021/10/09 01:21:13;;;;;;;;;;;;;;;;;;5033348;28;20171;-70
2021/10/09 01:23:43;;;;;;;;;;;;;;;;;;5030667;28;19921;-69
2021/10/09 01:26:09;;;;;;;;;;;;;;;;;;5043047;28;20004;-70
2021/10/09 01:28:35;;;;;;;;;;;;;;;;;;5032820;28;19916;-70
2021/10/09 01:31:00;;;;;;;;;;;;;;;;;;5026921;28;19905;-70
2021/10/09 01:33:26;;;;;;;;;;;;;;;;;;5041539;28;20003;-71
2021/10/09 01:35:52;;;;;;;;;;;;;;;;;;5048495;28;19995;-69
2021/10/09 01:38:20;;;;;;;;;;;;;;;;;;5043100;28;19920;-69
2021/10/09 01:40:45;;;;;;;;;;;;;;;;;;5034689;28;19905;-70
2021/10/09 01:43:12;;;;;;;;;;;;;;;;;;5027167;28;19913;-70
2021/10/09 01:45:37;;;;;;;;;;;;;;;;;;5038899;28;19917;-71
2021/10/09 01:48:02;;;;;;;;;;;;;;;;;;5049827;28;19928;-70
2021/10/09 01:50:28;;;;;;;;;;;;;;;;;;5028690;28;19925;-70
2021/10/09 01:52:53;;;;;;;;;;;;;;;;;;5033379;28;19905;-70
2021/10/09 01:55:18;;;;;;;;;;;;;;;;;;5026497;28;19912;-70
2021/10/09 01:57:45;;;;;;;;;;;;;;;;;;5043888;28;19906;-70
2021/10/09 02:00:11;;;;;;;;;;;;;;;;;;5030573;28;19989;-70
2021/10/09 02:02:46;;;;;;;;;;;;;;;;;;5026590;28;19976;-69
2021/10/09 02:05:13;;;;;;;;;;;;;;;;;;5027382;28;19924;-70
2021/10/09 02:07:38;;;;;;;;;;;;;;;;;;5028658;28;19906;-70
2021/10/09 02:10:04;;;;;;;;;;;;;;;;;;5039270;28;19909;-70
2021/10/09 02:12:32;;;;;;;;;;;;;;;;;;5031318;28;19989;-69
2021/10/09 02:15:03;;;;;;;;;;;;;;;;;;5026969;28;19944;-69
2021/10/09 02:17:50;;;;;;;;;;;;;;;;;;5033576;28;19917;-70
2021/10/09 02:25:48;;;;;;;;;;;;;;;;;;5033067;28;19964;-70
2021/10/09 02:28:15;;;;;;;;;;;;;;;;;;5039339;28;19936;-70
2021/10/09 02:30:41;;;;;;;;;;;;;;;;;;5027092;28;19964;-70
2021/10/09 02:33:06;;;;;;;;;;;;;;;;;;5030879;28;19911;-70
2021/10/09 02:35:31;;;;;;;;;;;;;;;;;;5027514;28;19910;-70
2021/10/09 02:37:57;;;;;;;;;;;;;;;;;;5029950;28;19905;-70
2021/10/09 02:40:22;;;;;;;;;;;;;;;;;;5036233;28;19915;-68
2021/10/09 02:42:47;;;;;;;;;;;;;;;;;;5026768;28;20086;-69
2021/10/09 02:45:12;;;;;;;;;;;;;;;;;;5034004;28;19909;-70
2021/10/09 02:47:37;;;;;;;;;;;;;;;;;;5023935;28;19917;-70
2021/10/09 02:50:03;;;;;;;;;;;;;;;;;;5046617;28;19916;-70
2021/10/09 02:52:29;;;;;;;;;;;;;;;;;;5046380;28;19944;-70
2021/10/09 02:54:54;;;;;;;;;;;;;;;;;;5027503;28;19905;-70
2021/10/09 02:57:20;;;;;;;;;;;;;;;;;;5043669;28;19904;-70
2021/10/09 02:59:45;;;;;;;;;;;;;;;;;;5040815;28;19913;-70
2021/10/09 03:02:13;;;;;;;;;;;;;;;;;;5023927;28;19997;-70
2021/10/09 03:04:40;;;;;;;;;;;;;;;;;;5030998;28;19916;-70
2021/10/09 03:07:05;;;;;;;;;;;;;;;;;;5008127;28;19913;-70
2021/10/09 03:09:32;;;;;;;;;;;;;;;;;;5032653;28;19940;-69
2021/10/09 03:11:58;;;;;;;;;;;;;;;;;;5026902;28;19929;-70
2021/10/09 03:14:25;;;;;;;;;;;;;;;;;;5042928;28;19917;-70
2021/10/09 03:16:50;;;;;;;;;;;;;;;;;;5029561;28;19906;-70
2021/10/09 03:19:16;;;;;;;;;;;;;;;;;;5026773;28;19920;-70
2021/10/09 03:21:41;;;;;;;;;;;;;;;;;;5039911;28;19924;-70
2021/10/09 03:24:08;;;;;;;;;;;;;;;;;;5041846;28;19914;-70
2021/10/09 03:26:33;;;;;;;;;;;;;;;;;;5024301;28;19917;-70
2021/10/09 03:28:58;;;;;;;;;;;;;;;;;;5034709;28;19933;-69
2021/10/09 03:31:26;;;;;;;;;;;;;;;;;;5004885;28;19912;-70
2021/10/09 03:33:51;;;;;;;;;;;;;;;;;;5042170;28;19932;-70
2021/10/09 03:36:18;;;;;;;;;;;;;;;;;;5024929;28;19917;-70
2021/10/09 03:38:43;;;;;;;;;;;;;;;;;;5010797;28;20293;-70
2021/10/09 03:41:11;;;;;;;;;;;;;;;;;;5041832;28;19905;-70
2021/10/09 03:43:37;;;;;;;;;;;;;;;;;;5026521;28;19912;-70
2021/10/09 03:48:41;;;;;;;;;;;;;;;;;;;;;
2021/10/09 03:53:34;;;;;;;;;;;;;;;;;;5030132;28;19996;-69
2021/10/09 03:55:59;;;;;;;;;;;;;;;;;;5026828;28;20333;-70
2021/10/09 03:58:25;;;;;;;;;;;;;;;;;;5029159;28;19925;-70
2021/10/09 04:00:50;;;;;;;;;;;;;;;;;;5039189;28;20001;-69
2021/10/09 04:03:16;;;;;;;;;;;;;;;;;;5020820;28;19913;-70
2021/10/09 04:05:41;;;;;;;;;;;;;;;;;;5046848;28;19905;-70
2021/10/09 04:08:09;;;;;;;;;;;;;;;;;;5025487;28;19925;-70
2021/10/09 04:10:34;;;;;;;;;;;;;;;;;;5029441;28;19961;-69
2021/10/09 04:13:01;;;;;;;;;;;;;;;;;;5026433;28;19965;-70
2021/10/09 04:15:28;;;;;;;;;;;;;;;;;;5025285;28;19917;-70
2021/10/09 04:17:54;;;;;;;;;;;;;;;;;;5031397;28;20314;-70
2021/10/09 04:20:19;;;;;;;;;;;;;;;;;;5022911;28;19919;-70
2021/10/09 04:22:46;;;;;;;;;;;;;;;;;;5046510;28;19913;-70
2021/10/09 04:25:12;;;;;;;;;;;;;;;;;;5026302;28;19928;-70
2021/10/09 04:27:37;;;;;;;;;;;;;;;;;;5008403;28;20007;-70
2021/10/09 04:30:04;;;;;;;;;;;;;;;;;;5010310;28;19906;-70
2021/10/09 04:32:29;;;;;;;;;;;;;;;;;;5001779;28;19913;-71
2021/10/09 04:34:55;;;;;;;;;;;;;;;;;;5021579;28;20008;-71
2021/10/09 04:37:22;;;;;;;;;;;;;;;;;;5043058;28;20013;-70
2021/10/09 04:39:48;;;;;;;;;;;;;;;;;;5034683;28;19914;-70
2021/10/09 04:42:14;;;;;;;;;;;;;;;;;;5006707;28;19924;-71
2021/10/09 04:44:40;;;;;;;;;;;;;;;;;;5023450;28;19910;-71
2021/10/09 04:47:05;;;;;;;;;;;;;;;;;;5024268;28;19905;-72
2021/10/09 04:49:31;;;;;;;;;;;;;;;;;;5030779;28;19982;-70
2021/10/09 04:51:58;;;;;;;;;;;;;;;;;;5025413;28;19917;-71
2021/10/09 04:54:24;;;;;;;;;;;;;;;;;;5046694;28;19914;-71
2021/10/09 04:56:49;;;;;;;;;;;;;;;;;;5025666;28;19977;-71
2021/10/09 04:59:15;;;;;;;;;;;;;;;;;;5025729;28;19905;-72
2021/10/09 05:01:40;;;;;;;;;;;;;;;;;;5030942;28;20180;-73
2021/10/09 05:04:05;;;;;;;;;;;;;;;;;;5026998;28;19917;-70
2021/10/09 05:06:32;;;;;;;;;;;;;;;;;;5045779;28;19921;-70
2021/10/09 05:08:57;;;;;;;;;;;;;;;;;;5028553;28;19928;-70
2021/10/09 05:11:23;;;;;;;;;;;;;;;;;;5024625;28;19943;-70
2021/10/09 05:13:49;;;;;;;;;;;;;;;;;;5031315;28;19918;-70
2021/10/09 05:16:15;;;;;;;;;;;;;;;;;;5028721;28;19932;-71
2021/10/09 05:18:41;;;;;;;;;;;;;;;;;;5034476;28;19909;-71
2021/10/09 05:21:06;;;;;;;;;;;;;;;;;;5043534;28;19943;-70
2021/10/09 05:23:32;;;;;;;;;;;;;;;;;;5045098;28;19985;-71
2021/10/09 05:25:58;;;;;;;;;;;;;;;;;;5035142;28;19906;-71
2021/10/09 05:28:47;;;;;;;;;;;;;;;;;;5028222;28;19974;-70
2021/10/09 05:33:50;;;;;;;;;;;;;;;;;;5032314;28;19906;-71
2021/10/09 05:36:16;;;;;;;;;;;;;;;;;;5044151;28;19940;-69
2021/10/09 05:38:41;;;;;;;;;;;;;;;;;;5027667;28;19945;-71
2021/10/09 05:41:07;;;;;;;;;;;;;;;;;;5027492;28;20151;-70
2021/10/09 05:43:37;;;;;;;;;;;;;;;;;;5028335;28;19917;-71
2021/10/09 05:46:04;;;;;;;;;;;;;;;;;;5033817;28;19976;-71
2021/10/09 05:48:34;;;;;;;;;;;;;;;;;;5011387;28;19906;-71
2021/10/09 05:56:34;;;;;;;;;;;;;;;;;;5019974;28;19905;-71
2021/10/09 06:37:40;;;;;;;;;;;;;;;;;;5039055;28;19929;-71
2021/10/09 06:45:42;;;;;;;;;;;;;;;;;;5040418;28;19925;-70
2021/10/09 06:48:40;;;;;;;;;;;;;;;;;;5009100;28;19928;-70
2021/10/09 07:01:57;;;;;;;;;;;;;;;;;;5024334;28;19913;-71
2021/10/09 07:04:23;;;;;;;;;;;;;;;;;;5026863;28;19973;-70
2021/10/09 07:06:50;;;;;;;;;;;;;;;;;;5028896;28;19925;-70
2021/10/09 07:09:32;;;;;;;;;;;;;;;;;;5022543;28;19915;-70
2021/10/09 07:12:10;;;;;;;;;;;;;;;;;;5047916;28;19992;-71
2021/10/09 07:14:36;;;;;;;;;;;;;;;;;;5038800;28;20101;-70
2021/10/09 07:17:01;;;;;;;;;;;;;;;;;;5021235;28;19921;-70
2021/10/09 07:19:27;;;;;;;;;;;;;;;;;;5030805;28;19906;-70
2021/10/09 07:21:52;;;;;;;;;;;;;;;;;;5026905;28;19928;-70
2021/10/09 07:24:17;;;;;;;;;;;;;;;;;;5031051;28;20151;-71
2021/10/09 07:26:42;;;;;;;;;;;;;;;;;;5026276;28;19905;-70
2021/10/09 07:29:08;;;;;;;;;;;;;;;;;;5036644;28;20105;-71
2021/10/09 07:31:33;;;;;;;;;;;;;;;;;;5031365;28;19905;-71
2021/10/09 07:33:58;;;;;;;;;;;;;;;;;;5036005;28;19918;-70
2021/10/09 07:36:23;;;;;;;;;;;;;;;;;;5008676;28;19917;-70
2021/10/09 07:38:49;;;;;;;;;;;;;;;;;;5040811;28;19964;-70
2021/10/09 07:41:14;;;;;;;;;;;;;;;;;;5026051;28;20060;-71
2021/10/09 07:43:39;;;;;;;;;;;;;;;;;;5025443;28;19913;-70
2021/10/09 07:46:04;;;;;;;;;;;;;;;;;;5034757;28;19911;-71
2021/10/09 07:48:30;;;;;;;;;;;;;;;;;;5042085;28;19936;-71
2021/10/09 07:50:58;;;;;;;;;;;;;;;;;;5037693;28;19987;-70
2021/10/09 07:53:23;;;;;;;;;;;;;;;;;;5035276;28;19940;-70
2021/10/09 07:55:48;;;;;;;;;;;;;;;;;;5025794;28;19925;-74
2021/10/09 07:58:13;;;;;;;;;;;;;;;;;;5004971;28;19913;-73
2021/10/09 08:00:39;;;;;;;;;;;;;;;;;;5036569;28;19928;-72
2021/10/09 08:03:04;;;;;;;;;;;;;;;;;;5043764;28;19932;-70
2021/10/09 08:05:33;;;;;;;;;;;;;;;;;;5024463;28;19901;-71
2021/10/09 08:07:58;;;;;;;;;;;;;;;;;;5031685;28;19932;-71
2021/10/09 08:10:24;;;;;;;;;;;;;;;;;;5034937;28;19936;-71
2021/10/09 08:12:49;;;;;;;;;;;;;;;;;;5025867;28;20038;-71
2021/10/09 08:15:14;;;;;;;;;;;;;;;;;;5027947;28;19905;-72
2021/10/09 08:17:40;;;;;;;;;;;;;;;;;;5024116;28;19909;-71
2021/10/09 08:20:05;;;;;;;;;;;;;;;;;;5043711;28;19940;-71
2021/10/09 08:22:33;;;;;;;;;;;;;;;;;;5037570;28;19939;-71
2021/10/09 08:27:46;;;;;;;;;;;;;;;;;;5049407;28;19921;-71
2021/10/09 08:41:07;;;;;;;;;;;;;;;;;;5036905;28;19917;-70
2021/10/09 08:43:32;;;;;;;;;;;;;;;;;;5046338;28;19941;-70
2021/10/09 08:45:57;;;;;;;;;;;;;;;;;;5043952;28;19913;-70
2021/10/09 08:48:28;;;;;;;;;;;;;;;;;;5030555;28;19913;-70
2021/10/09 08:50:53;;;;;;;;;;;;;;;;;;5038369;28;19905;-71
2021/10/09 08:53:19;;;;;;;;;;;;;;;;;;5041379;28;19963;-71
2021/10/09 08:55:44;;;;;;;;;;;;;;;;;;5045591;28;19905;-71
2021/10/09 08:58:12;;;;;;;;;;;;;;;;;;5040256;28;19936;-70
2021/10/09 09:00:40;;;;;;;;;;;;;;;;;;5051717;28;19932;-72
2021/10/09 09:03:16;;;;;;;;;;;;;;;;;;5038918;28;19921;-72
2021/10/09 09:05:55;;;;;;;;;;;;;;;;;;5046468;28;19913;-72
2021/10/09 09:35:17;;;;;;;;;;;;;;;;;;5038977;28;19941;-72
2021/10/09 09:38:53;;;;;;;;;;;;;;;;;;5040267;28;19921;-72
2021/10/09 09:40:28;;;;;;;;;;;;;;;;;;5033589;28;19936;-72
2021/10/09 09:42:54;;;;;;;;;;;;;;;;;;5027333;28;20034;-72
2021/10/09 09:45:19;;;;;;;;;;;;;;;;;;5035157;28;19936;-72
2021/10/09 09:47:44;;;;;;;;;;;;;;;;;;5028670;28;19901;-71
2021/10/09 09:50:10;;;;;;;;;;;;;;;;;;5037935;28;19932;-72
2021/10/09 09:52:35;;;;;;;;;;;;;;;;;;5035065;28;19901;-72
2021/10/09 09:55:00;;;;;;;;;;;;;;;;;;5025590;28;19924;-71
2021/10/09 09:57:25;;;;;;;;;;;;;;;;;;5043420;28;19973;-73
2021/10/09 09:59:51;;;;;;;;;;;;;;;;;;5042265;28;19921;-72
2021/10/09 10:02:16;;;;;;;;;;;;;;;;;;5020213;28;20191;-73
2021/10/09 10:04:41;;;;;;;;;;;;;;;;;;5025766;28;19908;-72
2021/10/09 10:07:06;;;;;;;;;;;;;;;;;;5024669;28;19924;-72
2021/10/09 10:09:32;;;;;;;;;;;;;;;;;;5041917;28;19968;-72
2021/10/09 10:11:57;;;;;;;;;;;;;;;;;;5026047;28;19905;-72
2021/10/09 10:14:22;;;;;;;;;;;;;;;;;;5038401;28;19931;-72
2021/10/09 10:16:48;;;;;;;;;;;;;;;;;;5043075;28;19955;-72
2021/10/09 10:19:14;;;;;;;;;;;;;;;;;;5038341;28;19921;-72
2021/10/09 10:21:44;;;;;;;;;;;;;;;;;;5032144;28;19944;-72
2021/10/09 10:24:09;;;;;;;;;;;;;;;;;;5037295;28;20293;-72
2021/10/09 10:26:34;;;;;;;;;;;;;;;;;;5038516;28;19916;-72
2021/10/09 10:29:00;;;;;;;;;;;;;;;;;;5051276;28;19932;-72
2021/10/09 10:31:25;;;;;;;;;;;;;;;;;;5037849;28;19925;-72
2021/10/09 10:34:00;;;;;;;;;;;;;;;;;;5042171;28;20208;-72
2021/10/09 10:36:25;;;;;;;;;;;;;;;;;;5049264;28;19906;-72
2021/10/09 10:38:51;;;;;;;;;;;;;;;;;;5038415;28;19920;-72
2021/10/09 10:41:19;;;;;;;;;;;;;;;;;;5042701;28;19932;-72
2021/10/09 10:43:48;;;;;;;;;;;;;;;;;;5036592;28;19905;-72
2021/10/09 10:46:13;;;;;;;;;;;;;;;;;;5036006;28;19984;-72
2021/10/09 10:48:38;;;;;;;;;;;;;;;;;;5046051;28;19913;-73
2021/10/09 10:51:12;;;;;;;;;;;;;;;;;;5037352;28;19905;-72
2021/10/09 10:53:46;;;;;;;;;;;;;;;;;;5032517;28;19909;-72
2021/10/09 10:56:13;;;;;;;;;;;;;;;;;;5042824;28;19932;-72
2021/10/09 10:58:38;;;;;;;;;;;;;;;;;;5040358;28;19901;-72
2021/10/09 11:01:03;;;;;;;;;;;;;;;;;;5009912;28;19983;-72
2021/10/09 11:03:28;;;;;;;;;;;;;;;;;;5037186;28;19935;-72
2021/10/09 11:05:53;;;;;;;;;;;;;;;;;;5042547;28;19924;-72
2021/10/09 11:08:19;;;;;;;;;;;;;;;;;;5037549;28;19978;-72
2021/10/09 11:10:44;;;;;;;;;;;;;;;;;;5038841;28;20004;-72
2021/10/09 11:13:09;;;;;;;;;;;;;;;;;;5043814;28;19939;-72
2021/10/09 11:15:36;;;;;;;;;;;;;;;;;;5038484;28;19932;-72
2021/10/09 11:18:01;;;;;;;;;;;;;;;;;;5032190;28;19937;-73
2021/10/09 11:20:26;;;;;;;;;;;;;;;;;;5034886;28;19906;-72
2021/10/09 11:22:52;;;;;;;;;;;;;;;;;;5042066;28;20040;-73
2021/10/09 11:25:17;;;;;;;;;;;;;;;;;;5044338;28;19952;-71
2021/10/09 11:27:42;;;;;;;;;;;;;;;;;;5038057;28;19905;-71
2021/10/09 11:30:08;;;;;;;;;;;;;;;;;;5048149;28;19931;-72
2021/10/09 11:32:33;;;;;;;;;;;;;;;;;;5037601;28;19956;-71
2021/10/09 11:34:58;;;;;;;;;;;;;;;;;;5035981;28;19905;-72
2021/10/09 11:37:25;;;;;;;;;;;;;;;;;;5040650;28;19920;-71
2021/10/09 11:39:50;;;;;;;;;;;;;;;;;;5025203;28;19926;-70
2021/10/09 11:42:19;;;;;;;;;;;;;;;;;;5041333;28;20004;-72
2021/10/09 11:44:51;;;;;;;;;;;;;;;;;;5035972;28;19936;-71
2021/10/09 11:47:35;;;;;;;;;;;;;;;;;;5033486;28;19905;-71
2021/10/09 11:55:28;;;;;;;;;;;;;;;;;;5035844;28;19981;-71
2021/10/09 11:57:54;;;;;;;;;;;;;;;;;;5044060;28;19906;-71
2021/10/09 12:00:19;;;;;;;;;;;;;;;;;;5036399;28;19913;-71
2021/10/09 12:02:45;;;;;;;;;;;;;;;;;;5031559;28;19921;-72
2021/10/09 12:05:12;;;;;;;;;;;;;;;;;;5041592;28;19921;-71
2021/10/09 12:07:38;;;;;;;;;;;;;;;;;;5035184;28;19924;-71
2021/10/09 12:10:03;;;;;;;;;;;;;;;;;;5007083;28;19917;-71
2021/10/09 12:12:33;;;;;;;;;;;;;;;;;;5035986;28;19905;-74
2021/10/09 12:14:59;;;;;;;;;;;;;;;;;;5040661;28;19920;-70
2021/10/09 12:17:24;;;;;;;;;;;;;;;;;;5044441;28;19905;-70
2021/10/09 12:19:49;;;;;;;;;;;;;;;;;;5040038;28;20156;-70
2021/10/09 12:22:15;;;;;;;;;;;;;;;;;;5042657;28;19913;-71
2021/10/09 12:24:40;;;;;;;;;;;;;;;;;;5039778;28;19928;-70
2021/10/09 12:27:05;;;;;;;;;;;;;;;;;;5040638;28;19936;-71
2021/10/09 12:29:31;;;;;;;;;;;;;;;;;;5048374;28;19915;-70
2021/10/09 12:31:57;;;;;;;;;;;;;;;;;;5003012;28;19902;-71
2021/10/09 12:34:22;;;;;;;;;;;;;;;;;;5046325;28;19938;-71
2021/10/09 12:36:48;;;;;;;;;;;;;;;;;;5028761;28;19917;-70
2021/10/09 12:39:13;;;;;;;;;;;;;;;;;;5045612;28;20066;-71
2021/10/09 12:41:38;;;;;;;;;;;;;;;;;;5044732;28;19913;-71
2021/10/09 12:44:04;;;;;;;;;;;;;;;;;;5037065;28;19968;-71
2021/10/09 12:46:29;;;;;;;;;;;;;;;;;;5044440;28;20279;-71
2021/10/09 12:48:54;;;;;;;;;;;;;;;;;;5027302;28;20119;-71
2021/10/09 12:51:19;;;;;;;;;;;;;;;;;;5038978;28;19990;-71
2021/10/09 12:53:45;;;;;;;;;;;;;;;;;;5044729;28;19910;-71
2021/10/09 12:56:10;;;;;;;;;;;;;;;;;;5039946;28;19963;-71
2021/10/09 12:58:35;;;;;;;;;;;;;;;;;;5035147;28;19906;-71
2021/10/09 13:01:00;;;;;;;;;;;;;;;;;;5037259;28;19924;-71
2021/10/09 13:03:25;;;;;;;;;;;;;;;;;;5040714;28;19959;-70
2021/10/09 13:05:51;;;;;;;;;;;;;;;;;;5049936;28;19939;-71
2021/10/09 13:08:16;;;;;;;;;;;;;;;;;;5037921;28;19913;-71
2021/10/09 13:10:45;;;;;;;;;;;;;;;;;;5046459;28;19913;-71
2021/10/09 13:13:10;;;;;;;;;;;;;;;;;;5040053;28;19981;-71
2021/10/09 13:15:36;;;;;;;;;;;;;;;;;;5038054;28;19959;-71
2021/10/09 13:18:01;;;;;;;;;;;;;;;;;;5031993;28;19905;-71
2021/10/09 13:20:32;;;;;;;;;;;;;;;;;;5026917;28;19969;-71
2021/10/09 13:22:57;;;;;;;;;;;;;;;;;;5044298;28;19932;-71
2021/10/09 13:25:23;;;;;;;;;;;;;;;;;;5038429;28;19921;-69
2021/10/09 13:27:48;;;;;;;;;;;;;;;;;;5029367;28;19912;-72
2021/10/09 13:30:13;;;;;;;;;;;;;;;;;;5045972;28;19916;-72
2021/10/09 13:32:38;;;;;;;;;;;;;;;;;;5038441;28;19984;-71
2021/10/09 13:35:04;;;;;;;;;;;;;;;;;;5045036;28;20073;-72
2021/10/09 13:37:31;;;;;;;;;;;;;;;;;;5040013;28;19988;-71
2021/10/09 13:39:58;;;;;;;;;;;;;;;;;;5040361;28;20260;-72
2021/10/09 13:42:25;;;;;;;;;;;;;;;;;;5044275;28;19913;-71
2021/10/09 13:44:50;;;;;;;;;;;;;;;;;;5039004;28;19913;-71
2021/10/09 13:47:15;;;;;;;;;;;;;;;;;;5049288;28;19924;-69
2021/10/09 13:49:40;;;;;;;;;;;;;;;;;;5042840;28;19936;-69
2021/10/09 13:52:06;;;;;;;;;;;;;;;;;;5037828;28;19922;-69
2021/10/09 13:54:32;;;;;;;;;;;;;;;;;;5043484;28;19905;-72
2021/10/09 13:56:57;;;;;;;;;;;;;;;;;;5038699;28;19936;-72
2021/10/09 13:59:22;;;;;;;;;;;;;;;;;;5043267;28;20180;-75
2021/10/09 14:01:47;;;;;;;;;;;;;;;;;;5039475;28;19913;-75
2021/10/09 14:04:13;;;;;;;;;;;;;;;;;;5037372;28;19909;-72
2021/10/09 14:06:38;;;;;;;;;;;;;;;;;;5045807;28;19905;-72
2021/10/09 14:09:03;;;;;;;;;;;;;;;;;;5039188;28;19916;-72
2021/10/09 14:11:28;;;;;;;;;;;;;;;;;;5040949;28;19902;-72
2021/10/09 14:13:53;;;;;;;;;;;;;;;;;;5001652;28;19936;-72
2021/10/09 14:16:19;;;;;;;;;;;;;;;;;;5038021;28;19959;-72
2021/10/09 14:18:44;;;;;;;;;;;;;;;;;;5025983;28;19944;-72
2021/10/09 14:21:09;;;;;;;;;;;;;;;;;;5036068;28;20016;-72
2021/10/09 14:23:35;;;;;;;;;;;;;;;;;;5042608;28;19914;-72
2021/10/09 14:26:00;;;;;;;;;;;;;;;;;;5037384;28;20024;-72
2021/10/09 14:28:25;;;;;;;;;;;;;;;;;;5038567;28;20014;-75
2021/10/09 14:30:51;;;;;;;;;;;;;;;;;;5048160;28;19936;-74
2021/10/09 14:33:16;;;;;;;;;;;;;;;;;;5027945;28;19906;-73
2021/10/09 14:35:41;;;;;;;;;;;;;;;;;;5046809;28;19920;-73
2021/10/09 14:38:07;;;;;;;;;;;;;;;;;;5036596;28;19957;-73
2021/10/09 14:40:32;;;;;;;;;;;;;;;;;;5035941;28;20031;-72
2021/10/09 14:42:57;;;;;;;;;;;;;;;;;;5041905;28;20166;-72
2021/10/09 14:45:23;;;;;;;;;;;;;;;;;;5040601;28;20202;-73
2021/10/09 15:18:09;;;;;;;;;;;;;;;;;;5038634;28;19933;-73
2021/10/09 15:20:34;;;;;;;;;;;;;;;;;;5036099;28;20178;-73
2021/10/09 15:23:01;;;;;;;;;;;;;;;;;;5044077;28;19992;-73
2021/10/09 15:25:27;;;;;;;;;;;;;;;;;;5035100;28;19913;-73
2021/10/09 15:27:52;;;;;;;;;;;;;;;;;;5032435;28;19913;-73
2021/10/09 15:30:17;;;;;;;;;;;;;;;;;;5027000;28;19924;-73
2021/10/09 15:32:42;;;;;;;;;;;;;;;;;;5036892;28;19972;-73
2021/10/09 15:35:07;;;;;;;;;;;;;;;;;;5042284;28;19978;-73
2021/10/09 15:37:35;;;;;;;;;;;;;;;;;;5037507;28;19980;-73
2021/10/09 15:40:00;;;;;;;;;;;;;;;;;;5030795;28;19906;-73
2021/10/09 15:42:25;;;;;;;;;;;;;;;;;;5033990;28;19940;-73
2021/10/09 15:44:50;;;;;;;;;;;;;;;;;;5027118;28;19931;-73
2021/10/09 15:47:15;;;;;;;;;;;;;;;;;;5006832;28;19905;-73
2021/10/09 15:49:41;;;;;;;;;;;;;;;;;;5036778;28;19906;-73
2021/10/09 15:52:06;;;;;;;;;;;;;;;;;;5040945;28;19928;-72
2021/10/09 15:54:31;;;;;;;;;;;;;;;;;;5036582;28;19905;-73
2021/10/09 15:56:56;;;;;;;;;;;;;;;;;;5024409;28;19921;-72
2021/10/09 15:59:22;;;;;;;;;;;;;;;;;;5030255;28;19906;-72
2021/10/09 16:01:47;;;;;;;;;;;;;;;;;;5022468;28;19913;-71
2021/10/09 16:04:12;;;;;;;;;;;;;;;;;;5041298;28;19905;-72
2021/10/09 16:06:38;;;;;;;;;;;;;;;;;;5036951;28;19914;-72
2021/10/09 16:09:03;;;;;;;;;;;;;;;;;;5040724;28;19981;-71
2021/10/09 16:11:28;;;;;;;;;;;;;;;;;;5040992;28;19924;-73
2021/10/09 16:13:54;;;;;;;;;;;;;;;;;;5036610;28;19905;-73
2021/10/09 16:16:20;;;;;;;;;;;;;;;;;;5043485;28;20113;-73
2021/10/09 16:18:45;;;;;;;;;;;;;;;;;;5034620;28;19906;-73
2021/10/09 16:21:10;;;;;;;;;;;;;;;;;;5038931;28;19905;-73
2021/10/09 16:23:35;;;;;;;;;;;;;;;;;;5043184;28;19917;-71
2021/10/09 16:26:00;;;;;;;;;;;;;;;;;;5036776;28;19914;-73
2021/10/09 16:28:26;;;;;;;;;;;;;;;;;;5030139;28;19905;-73
2021/10/09 16:30:51;;;;;;;;;;;;;;;;;;5036034;28;20129;-73
2021/10/09 16:33:16;;;;;;;;;;;;;;;;;;5041898;28;19916;-70
2021/10/09 16:35:41;;;;;;;;;;;;;;;;;;5041488;28;19906;-71
2021/10/09 16:38:07;;;;;;;;;;;;;;;;;;5030779;28;19909;-70
2021/10/09 16:40:32;;;;;;;;;;;;;;;;;;5041807;28;19940;-70
2021/10/09 16:42:57;;;;;;;;;;;;;;;;;;5036509;28;19921;-70
2021/10/09 16:45:22;;;;;;;;;;;;;;;;;;5023118;28;19943;-70
2021/10/09 16:47:48;;;;;;;;;;;;;;;;;;5039389;28;20185;-67
2021/10/09 16:50:13;;;;;;;;;;;;;;;;;;5024851;28;19960;-69
2021/10/09 16:52:38;;;;;;;;;;;;;;;;;;5047439;28;19933;-69
2021/10/09 16:55:03;;;;;;;;;;;;;;;;;;5033937;28;19944;-69
2021/10/09 16:57:29;;;;;;;;;;;;;;;;;;5025549;28;19914;-69
2021/10/09 16:59:54;;;;;;;;;;;;;;;;;;5044238;28;19905;-69
2021/10/09 17:02:19;;;;;;;;;;;;;;;;;;5037847;28;19941;-69
2021/10/09 17:04:44;;;;;;;;;;;;;;;;;;5044303;28;19928;-74
2021/10/09 17:07:09;;;;;;;;;;;;;;;;;;5036968;28;19917;-70
2021/10/09 17:09:35;;;;;;;;;;;;;;;;;;5039784;28;19913;-69
2021/10/09 17:12:01;;;;;;;;;;;;;;;;;;5042182;28;19941;-70
2021/10/09 17:14:26;;;;;;;;;;;;;;;;;;5045055;28;19913;-69
2021/10/09 17:16:51;;;;;;;;;;;;;;;;;;5035931;28;19906;-69
2021/10/09 17:19:16;;;;;;;;;;;;;;;;;;5045067;28;19964;-69
2021/10/09 17:21:42;;;;;;;;;;;;;;;;;;5029866;28;19916;-69
2021/10/09 17:24:07;;;;;;;;;;;;;;;;;;5045498;28;19910;-69
2021/10/09 17:26:32;;;;;;;;;;;;;;;;;;5037650;28;19905;-69
2021/10/09 17:28:58;;;;;;;;;;;;;;;;;;5044847;28;19928;-70
2021/10/09 17:31:23;;;;;;;;;;;;;;;;;;5035335;28;19905;-69
2021/10/09 17:33:48;;;;;;;;;;;;;;;;;;5039587;28;19937;-70
2021/10/09 17:36:13;;;;;;;;;;;;;;;;;;5049015;28;19913;-69
2021/10/09 17:38:38;;;;;;;;;;;;;;;;;;5038735;28;19936;-69
2021/10/09 17:41:04;;;;;;;;;;;;;;;;;;5042355;28;19914;-69
2021/10/09 17:43:29;;;;;;;;;;;;;;;;;;5037456;28;19953;-71
2021/10/09 17:45:54;;;;;;;;;;;;;;;;;;5041479;28;19905;-70
2021/10/09 17:48:20;;;;;;;;;;;;;;;;;;5036482;28;19905;-69
2021/10/09 17:50:45;;;;;;;;;;;;;;;;;;5044732;28;20215;-70
2021/10/09 17:53:11;;;;;;;;;;;;;;;;;;5044315;28;20143;-69
2021/10/09 17:55:40;;;;;;;;;;;;;;;;;;5041216;28;19905;-69
2021/10/09 17:58:05;;;;;;;;;;;;;;;;;;5047639;28;19981;-70
2021/10/09 18:00:31;;;;;;;;;;;;;;;;;;5042665;28;19936;-69
2021/10/09 18:02:56;;;;;;;;;;;;;;;;;;5046027;28;19972;-69
2021/10/09 18:05:21;;;;;;;;;;;;;;;;;;5047566;28;19963;-69
2021/10/09 18:07:46;;;;;;;;;;;;;;;;;;5046341;28;19955;-69
2021/10/09 18:10:12;;;;;;;;;;;;;;;;;;5042965;28;20212;-69
2021/10/09 18:12:38;;;;;;;;;;;;;;;;;;5027850;28;19912;-70
2021/10/09 18:15:03;;;;;;;;;;;;;;;;;;5045504;28;19927;-69
2021/10/09 18:17:29;;;;;;;;;;;;;;;;;;5042573;28;19944;-68
2021/10/09 18:19:54;;;;;;;;;;;;;;;;;;5042733;28;19905;-68
2021/10/09 18:22:19;;;;;;;;;;;;;;;;;;5046323;28;19968;-69
2021/10/09 18:24:44;;;;;;;;;;;;;;;;;;5046581;28;19916;-70
2021/10/09 18:27:10;;;;;;;;;;;;;;;;;;5044983;28;20247;-70
2021/10/09 18:29:35;;;;;;;;;;;;;;;;;;5046312;28;19912;-71
2021/10/09 18:32:00;;;;;;;;;;;;;;;;;;5041177;28;19983;-70
2021/10/09 18:34:25;;;;;;;;;;;;;;;;;;5042071;28;19914;-68
2021/10/09 18:36:50;;;;;;;;;;;;;;;;;;5043650;28;19914;-71
2021/10/09 18:39:16;;;;;;;;;;;;;;;;;;5047862;28;19981;-71
2021/10/09 18:41:41;;;;;;;;;;;;;;;;;;5031947;28;19935;-72
2021/10/09 18:44:06;;;;;;;;;;;;;;;;;;5044032;28;19905;-72
2021/10/09 18:46:31;;;;;;;;;;;;;;;;;;5041522;28;20400;-72
2021/10/09 18:48:57;;;;;;;;;;;;;;;;;;5041035;28;19912;-72
2021/10/09 18:51:22;;;;;;;;;;;;;;;;;;5040745;28;19912;-72
2021/10/09 18:53:47;;;;;;;;;;;;;;;;;;5030408;28;19909;-72
2021/10/09 18:56:12;;;;;;;;;;;;;;;;;;5040952;28;20161;-72
2021/10/09 18:58:40;;;;;;;;;;;;;;;;;;5047112;28;19964;-72
2021/10/09 19:01:05;;;;;;;;;;;;;;;;;;5042707;28;19960;-72
2021/10/09 19:03:30;;;;;;;;;;;;;;;;;;5031858;28;19930;-72
2021/10/09 19:05:55;;;;;;;;;;;;;;;;;;5041425;28;19921;-72
2021/10/09 19:08:20;;;;;;;;;;;;;;;;;;5047418;28;20022;-73